createdAt,value
2023-04-30T00:09:05.828Z,11.62
2023-04-30T00:11:56.752Z,11.62
2023-04-30T00:14:24.166Z,11.62
2023-04-30T00:16:51.560Z,11.61
2023-04-30T00:19:18.530Z,11.62
2023-04-30T00:21:46.217Z,11.62
2023-04-30T00:24:13.461Z,11.61
2023-04-30T00:26:44.930Z,11.59
2023-04-30T00:29:14.800Z,11.58
2023-04-30T00:46:25.003Z,11.57
2023-04-30T00:49:06.226Z,11.57
2023-04-30T00:51:33.637Z,11.56
2023-04-30T00:54:04.726Z,11.57
2023-04-30T00:57:05.403Z,11.58
2023-04-30T00:59:35.261Z,11.56
2023-04-30T01:02:24.392Z,11.56
2023-04-30T01:04:53.053Z,11.55
2023-04-30T01:07:20.271Z,11.55
2023-04-30T01:09:47.329Z,11.56
2023-04-30T01:12:26.455Z,11.55
2023-04-30T01:15:16.530Z,11.54
2023-04-30T01:18:08.006Z,11.53
2023-04-30T01:20:38.662Z,11.51
2023-04-30T01:23:18.297Z,11.50
2023-04-30T01:26:16.321Z,11.48
2023-04-30T01:28:46.456Z,11.48
2023-04-30T01:31:21.397Z,11.46
2023-04-30T01:33:48.984Z,11.47
2023-04-30T01:36:29.869Z,11.47
2023-04-30T01:39:09.860Z,11.45
2023-04-30T01:42:13.510Z,11.44
2023-04-30T01:44:54.850Z,11.42
2023-04-30T01:47:44.646Z,11.41
2023-04-30T01:50:31.309Z,11.39
2023-04-30T01:53:07.306Z,11.37
2023-04-30T01:55:52.062Z,11.36
2023-04-30T01:58:22.908Z,11.36
2023-04-30T02:00:49.727Z,11.35
2023-04-30T02:03:16.607Z,11.34
2023-04-30T02:05:43.994Z,11.34
2023-04-30T02:08:11.006Z,11.34
2023-04-30T02:10:37.875Z,11.34
2023-04-30T02:13:04.816Z,11.33
2023-04-30T02:15:32.212Z,11.32
2023-04-30T02:17:59.600Z,11.30
2023-04-30T02:21:20.816Z,11.29
2023-04-30T02:23:52.051Z,11.28
2023-04-30T02:26:39.569Z,11.27
2023-04-30T02:30:26.217Z,11.26
2023-04-30T02:33:05.822Z,11.25
2023-04-30T02:35:33.802Z,11.23
2023-04-30T02:38:01.348Z,11.23
2023-04-30T02:40:28.528Z,11.23
2023-04-30T02:42:57.009Z,11.22
2023-04-30T02:46:24.952Z,11.22
2023-04-30T02:50:11.460Z,11.21
2023-04-30T02:52:59.273Z,11.20
2023-04-30T02:55:41.666Z,11.18
2023-04-30T02:58:43.989Z,11.17
2023-04-30T03:01:18.364Z,11.15
2023-04-30T03:05:05.034Z,11.15
2023-04-30T03:07:51.879Z,11.11
2023-04-30T03:11:00.897Z,11.10
2023-04-30T03:13:56.448Z,11.09
2023-04-30T03:16:51.716Z,11.08
2023-04-30T03:25:54.133Z,11.05
2023-04-30T03:29:12.937Z,11.05
2023-04-30T03:32:08.423Z,11.05
2023-04-30T03:34:42.326Z,11.02
2023-04-30T03:37:29.388Z,11.02
2023-04-30T03:39:57.054Z,11.01
2023-04-30T03:42:37.366Z,11.01
2023-04-30T03:48:20.857Z,10.99
2023-04-30T03:51:33.973Z,10.99
2023-04-30T03:54:16.283Z,10.98
2023-04-30T03:58:01.718Z,10.98
2023-04-30T04:00:49.409Z,10.96
2023-04-30T04:03:36.510Z,10.96
2023-04-30T04:07:04.000Z,10.96
2023-04-30T04:09:51.005Z,10.96
2023-04-30T04:12:18.031Z,10.97
2023-04-30T04:14:45.713Z,10.97
2023-04-30T04:17:12.803Z,10.98
2023-04-30T04:19:39.945Z,10.99
2023-04-30T04:22:23.387Z,10.99
2023-04-30T04:24:51.304Z,11.00
2023-04-30T04:27:18.271Z,11.01
2023-04-30T04:29:45.497Z,11.02
2023-04-30T04:32:32.499Z,11.03
2023-04-30T04:35:07.330Z,11.04
2023-04-30T04:37:35.217Z,11.04
2023-04-30T04:40:02.168Z,11.04
2023-04-30T04:42:29.066Z,11.04
2023-04-30T04:44:56.030Z,11.03
2023-04-30T04:48:22.878Z,11.04
2023-04-30T04:51:11.473Z,11.03
2023-04-30T04:59:30.265Z,10.98
2023-04-30T05:01:57.220Z,10.96
2023-04-30T05:04:24.686Z,10.96
2023-04-30T05:06:52.504Z,10.94
2023-04-30T05:09:39.924Z,10.94
2023-04-30T05:12:47.294Z,10.88
2023-04-30T05:15:53.204Z,10.84
2023-04-30T05:19:01.744Z,10.77
2023-04-30T05:22:14.836Z,10.75
2023-04-30T05:24:41.943Z,10.74
2023-04-30T05:27:09.739Z,10.74
2023-04-30T05:29:36.911Z,10.75
2023-04-30T05:32:04.376Z,10.76
2023-04-30T05:34:34.457Z,10.77
2023-04-30T05:37:06.164Z,10.77
2023-04-30T05:46:01.319Z,10.65
2023-04-30T05:49:16.659Z,10.63
2023-04-30T05:51:43.826Z,10.58
2023-04-30T05:55:03.531Z,10.56
2023-04-30T06:00:25.941Z,10.48
2023-04-30T06:02:54.221Z,10.44
2023-04-30T06:09:02.443Z,10.39
2023-04-30T06:11:31.015Z,10.33
2023-04-30T06:14:13.435Z,10.28
2023-04-30T06:17:35.655Z,10.23
2023-04-30T06:20:09.751Z,10.13
2023-04-30T06:34:46.775Z,9.99
2023-04-30T06:37:53.822Z,9.97
2023-04-30T06:40:59.192Z,9.97
2023-04-30T06:50:11.518Z,9.94
2023-04-30T06:52:50.113Z,9.95
2023-04-30T06:55:17.736Z,9.95
2023-04-30T06:57:47.366Z,9.96
2023-04-30T07:36:30.288Z,10.84
2023-04-30T07:39:16.377Z,11.01
2023-04-30T07:41:58.335Z,11.11
2023-04-30T07:44:28.215Z,11.20
2023-04-30T07:53:43.272Z,11.45
2023-04-30T07:56:32.933Z,11.53
2023-04-30T08:01:58.824Z,11.72
2023-04-30T08:04:29.298Z,11.87
2023-04-30T08:06:58.815Z,11.99
2023-04-30T08:09:32.641Z,12.13
2023-04-30T08:12:00.352Z,12.27
2023-04-30T08:14:27.615Z,12.42
2023-04-30T08:16:54.729Z,12.60
2023-04-30T08:19:22.320Z,12.75
2023-04-30T08:21:49.877Z,12.88
2023-04-30T08:24:23.306Z,13.01
2023-04-30T08:26:51.218Z,13.10
2023-04-30T08:29:19.354Z,13.25
2023-04-30T08:31:46.583Z,13.40
2023-04-30T08:34:13.706Z,13.56
2023-04-30T08:36:40.799Z,13.75
2023-04-30T08:39:08.141Z,13.90
2023-04-30T08:41:36.811Z,14.01
2023-04-30T08:44:05.211Z,14.12
2023-04-30T08:46:36.352Z,14.24
2023-04-30T08:49:03.543Z,14.36
2023-04-30T08:51:33.592Z,14.48
2023-04-30T08:54:00.605Z,14.61
2023-04-30T08:56:29.743Z,14.76
2023-04-30T08:58:56.853Z,14.86
2023-04-30T09:01:25.683Z,14.95
2023-04-30T09:03:52.844Z,14.96
2023-04-30T09:06:20.532Z,14.97
2023-04-30T09:08:51.221Z,15.00
2023-04-30T09:11:25.866Z,15.05
2023-04-30T09:13:55.420Z,15.19
2023-04-30T09:16:24.737Z,15.34
2023-04-30T09:18:55.235Z,15.38
2023-04-30T09:21:36.992Z,15.42
2023-04-30T09:29:08.227Z,15.62
2023-04-30T09:31:37.216Z,15.78
2023-04-30T09:34:07.129Z,15.88
2023-04-30T09:36:37.398Z,15.93
2023-04-30T09:39:20.302Z,15.96
2023-04-30T09:41:48.614Z,16.03
2023-04-30T09:44:32.273Z,16.03
2023-04-30T09:47:00.494Z,16.03
2023-04-30T09:53:15.311Z,16.00
2023-04-30T10:19:01.526Z,16.36
2023-04-30T10:21:47.225Z,16.35
2023-04-30T10:24:16.656Z,16.27
2023-04-30T10:26:44.965Z,16.24
2023-04-30T10:29:17.211Z,16.17
2023-04-30T10:31:48.402Z,16.08
2023-04-30T10:34:30.970Z,16.07
2023-04-30T10:37:22.096Z,16.18
2023-04-30T10:39:55.946Z,16.31
2023-04-30T10:42:23.617Z,16.46
2023-04-30T10:44:50.595Z,16.60
2023-04-30T10:47:19.727Z,16.70
2023-04-30T10:49:50.367Z,16.69
2023-04-30T10:52:30.383Z,16.70
2023-04-30T10:59:32.580Z,16.57
2023-04-30T11:10:18.243Z,16.94
2023-04-30T11:14:46.230Z,16.91
2023-04-30T11:20:54.826Z,16.72
2023-04-30T11:23:39.280Z,16.45
2023-04-30T11:26:07.843Z,16.20
2023-04-30T11:28:35.999Z,16.09
2023-04-30T11:31:03.457Z,16.00
2023-04-30T11:33:31.979Z,15.97
2023-04-30T11:36:00.466Z,16.02
2023-04-30T11:38:34.168Z,15.98
2023-04-30T11:41:02.539Z,16.00
2023-04-30T11:43:31.229Z,16.05
2023-04-30T11:46:12.505Z,16.19
2023-04-30T11:48:45.229Z,16.32
2023-04-30T11:51:22.453Z,16.36
2023-04-30T11:53:51.071Z,16.35
2023-04-30T11:56:22.338Z,16.40
2023-04-30T11:58:51.663Z,16.45
2023-04-30T12:01:22.045Z,16.58
2023-04-30T12:03:51.617Z,16.67
2023-04-30T12:06:24.184Z,16.69
2023-04-30T12:08:55.359Z,16.58
2023-04-30T12:11:32.003Z,16.39
2023-04-30T12:14:07.872Z,16.30
2023-04-30T12:16:42.277Z,16.35
2023-04-30T12:19:12.850Z,16.45
2023-04-30T12:21:41.580Z,16.52
2023-04-30T12:24:08.450Z,16.60
2023-04-30T12:26:37.621Z,16.68
2023-04-30T12:29:09.193Z,16.77
2023-04-30T12:31:37.783Z,16.83
2023-04-30T12:34:06.684Z,16.85
2023-04-30T12:36:36.737Z,16.92
2023-04-30T12:39:11.431Z,17.00
2023-04-30T12:41:42.784Z,17.03
2023-04-30T12:44:24.849Z,17.04
2023-04-30T12:47:00.687Z,16.98
2023-04-30T12:49:34.921Z,16.92
2023-04-30T12:52:15.786Z,16.79
2023-04-30T12:54:43.479Z,16.66
2023-04-30T12:57:12.631Z,16.61
2023-04-30T12:59:57.440Z,16.64
2023-04-30T13:02:25.811Z,16.68
2023-04-30T13:04:53.795Z,16.74
2023-04-30T13:07:21.247Z,16.79
2023-04-30T13:09:48.119Z,16.80
2023-04-30T13:12:15.197Z,16.78
2023-04-30T13:14:42.244Z,16.78
2023-04-30T13:17:11.062Z,16.83
2023-04-30T13:19:37.961Z,16.88
2023-04-30T13:22:05.245Z,16.92
2023-04-30T13:24:32.177Z,16.95
2023-04-30T13:26:59.445Z,16.95
2023-04-30T13:29:26.903Z,16.92
2023-04-30T13:31:53.939Z,16.89
2023-04-30T13:34:21.300Z,16.83
2023-04-30T13:36:48.783Z,16.74
2023-04-30T13:39:15.825Z,16.73
2023-04-30T13:41:42.672Z,16.73
2023-04-30T13:44:09.651Z,16.71
2023-04-30T13:46:36.532Z,16.74
2023-04-30T13:49:03.750Z,16.70
2023-04-30T13:51:30.943Z,16.64
2023-04-30T13:53:58.152Z,16.64
2023-04-30T13:56:25.817Z,16.68
2023-04-30T13:58:52.732Z,16.72
2023-04-30T14:01:19.629Z,16.75
2023-04-30T14:03:47.918Z,16.77
2023-04-30T14:06:15.060Z,16.75
2023-04-30T14:08:42.031Z,16.75
2023-04-30T14:11:08.877Z,16.72
2023-04-30T14:13:36.055Z,16.60
2023-04-30T14:16:03.101Z,16.52
2023-04-30T14:18:30.043Z,16.39
2023-04-30T14:20:56.980Z,16.28
2023-04-30T14:23:23.906Z,16.18
2023-04-30T14:25:50.805Z,16.10
2023-04-30T14:28:18.245Z,16.04
2023-04-30T14:30:45.224Z,16.08
2023-04-30T14:33:13.154Z,16.12
2023-04-30T14:35:41.705Z,16.12
2023-04-30T14:38:08.661Z,16.11
2023-04-30T14:40:35.744Z,16.09
2023-04-30T14:43:02.616Z,16.09
2023-04-30T14:45:29.742Z,16.08
2023-04-30T14:47:56.784Z,16.11
2023-04-30T14:50:24.299Z,16.10
2023-04-30T14:52:51.542Z,16.04
2023-04-30T14:55:18.521Z,16.04
2023-04-30T14:57:45.708Z,16.03
2023-04-30T15:00:12.988Z,16.02
2023-04-30T15:02:39.998Z,15.94
2023-04-30T15:05:08.546Z,15.80
2023-04-30T15:07:36.946Z,15.66
2023-04-30T15:10:04.468Z,15.61
2023-04-30T15:12:31.628Z,15.58
2023-04-30T15:14:58.604Z,15.56
2023-04-30T15:17:25.644Z,15.54
2023-04-30T15:19:53.818Z,15.46
2023-04-30T15:22:21.594Z,15.39
2023-04-30T15:24:48.608Z,15.35
2023-04-30T15:27:15.642Z,15.27
2023-04-30T15:29:42.782Z,15.21
2023-04-30T15:32:09.801Z,15.15
2023-04-30T15:34:36.810Z,15.11
2023-04-30T15:37:03.680Z,15.10
2023-04-30T15:39:30.603Z,15.09
2023-04-30T15:41:57.542Z,15.02
2023-04-30T15:44:24.500Z,14.96
2023-04-30T15:46:51.884Z,14.90
2023-04-30T15:49:19.000Z,14.86
2023-04-30T15:51:46.434Z,14.82
2023-04-30T15:54:14.077Z,14.74
2023-04-30T15:56:41.298Z,14.65
2023-04-30T15:59:08.333Z,14.56
2023-04-30T16:01:35.298Z,14.47
2023-04-30T16:04:02.528Z,14.40
2023-04-30T16:06:32.165Z,14.33
2023-04-30T16:08:59.189Z,14.26
2023-04-30T16:11:26.180Z,14.17
2023-04-30T16:13:53.780Z,14.10
2023-04-30T16:16:20.807Z,14.03
2023-04-30T16:18:47.878Z,13.98
2023-04-30T16:21:14.872Z,13.95
2023-04-30T16:23:41.775Z,13.90
2023-04-30T16:26:08.968Z,13.85
2023-04-30T16:28:35.984Z,13.81
2023-04-30T16:31:03.925Z,13.76
2023-04-30T16:33:30.869Z,13.70
2023-04-30T16:35:58.089Z,13.66
2023-04-30T16:38:25.096Z,13.62
2023-04-30T16:40:52.445Z,13.55
2023-04-30T16:43:19.670Z,13.50
2023-04-30T16:45:46.604Z,13.43
2023-04-30T16:48:13.537Z,13.37
2023-04-30T16:50:40.549Z,13.30
2023-04-30T16:53:09.230Z,13.23
2023-04-30T16:55:37.785Z,13.16
2023-04-30T16:58:04.736Z,13.11
2023-04-30T17:00:31.796Z,13.05
2023-04-30T17:02:58.818Z,12.99
2023-04-30T17:05:26.357Z,12.92
2023-04-30T17:07:53.408Z,12.85
2023-04-30T17:10:21.746Z,12.80
2023-04-30T17:12:49.142Z,12.73
2023-04-30T17:15:18.388Z,12.67
2023-04-30T17:17:45.891Z,12.62
2023-04-30T17:20:12.934Z,12.57
2023-04-30T17:22:40.454Z,12.52
2023-04-30T17:25:08.252Z,12.46
2023-04-30T17:27:35.873Z,12.39
2023-04-30T17:30:04.556Z,12.31
2023-04-30T17:32:33.902Z,12.23
2023-04-30T17:35:02.866Z,12.14
2023-04-30T17:37:30.004Z,12.06
2023-04-30T17:39:57.351Z,12.00
2023-04-30T17:42:28.463Z,11.94
2023-04-30T17:44:55.635Z,11.88
2023-04-30T17:47:23.173Z,11.83
2023-04-30T17:49:50.691Z,11.76
2023-04-30T17:52:17.807Z,11.68
2023-04-30T18:00:34.676Z,11.45
2023-04-30T18:03:06.343Z,11.37
2023-04-30T18:05:36.676Z,11.28
2023-04-30T18:08:04.183Z,11.21
2023-04-30T18:11:25.700Z,11.13
2023-04-30T18:13:52.701Z,11.01
2023-04-30T18:16:20.190Z,10.93
2023-04-30T18:18:48.028Z,10.83
2023-04-30T18:24:09.547Z,10.63
2023-04-30T18:26:38.591Z,10.54
2023-04-30T18:32:10.931Z,10.34
2023-04-30T18:45:24.553Z,9.83
2023-04-30T18:51:30.957Z,9.55
2023-04-30T18:54:07.253Z,9.40
2023-04-30T18:57:01.661Z,9.27
2023-04-30T18:59:29.596Z,9.15
2023-04-30T19:14:14.380Z,8.48
2023-04-30T19:16:48.120Z,8.35
2023-04-30T19:19:15.011Z,8.22
2023-04-30T19:21:42.751Z,8.08
2023-04-30T19:24:10.722Z,7.97
2023-04-30T19:26:38.009Z,7.86
2023-04-30T19:29:29.858Z,7.75
2023-04-30T19:31:59.894Z,7.63
2023-04-30T19:34:27.488Z,7.53
2023-04-30T19:36:55.279Z,7.44
2023-04-30T19:39:22.247Z,7.36
2023-04-30T19:41:50.093Z,7.28
2023-04-30T19:44:20.164Z,7.19
2023-04-30T19:49:14.548Z,6.97
2023-04-30T19:51:41.729Z,6.87
2023-04-30T19:54:14.018Z,6.77
2023-04-30T19:57:02.179Z,6.67
2023-04-30T20:00:18.789Z,6.56
2023-04-30T20:03:14.393Z,6.45
2023-04-30T20:05:41.327Z,6.36
2023-04-30T20:08:09.557Z,6.28
2023-04-30T20:10:38.367Z,6.19
2023-04-30T20:13:06.519Z,6.11
2023-04-30T20:15:33.932Z,6.03
2023-04-30T20:18:26.884Z,5.96
2023-04-30T20:20:53.774Z,5.87
2023-04-30T20:23:20.980Z,5.80
2023-04-30T20:26:28.752Z,5.73
2023-04-30T20:28:55.723Z,5.66
2023-04-30T20:31:56.015Z,5.59
2023-04-30T20:34:23.659Z,5.50
2023-04-30T20:36:52.928Z,5.42
2023-04-30T20:42:57.407Z,5.22
2023-04-30T20:48:22.765Z,5.04
2023-04-30T20:51:30.162Z,4.97
2023-04-30T20:53:57.813Z,4.90
2023-04-30T20:56:27.676Z,4.85
2023-04-30T21:05:37.944Z,4.65
2023-04-30T21:08:05.917Z,4.60
2023-04-30T21:10:37.061Z,4.55
2023-04-30T21:13:07.008Z,4.51
2023-04-30T21:15:35.390Z,4.47
2023-04-30T21:18:02.380Z,4.45
2023-04-30T21:20:31.665Z,4.40
2023-04-30T21:22:58.891Z,4.36
2023-04-30T21:25:26.021Z,4.31
2023-04-30T21:27:53.061Z,4.25
2023-04-30T21:30:23.526Z,4.19
2023-04-30T21:32:58.106Z,4.14
2023-04-30T21:35:25.620Z,4.08
2023-04-30T21:37:53.050Z,4.02
2023-04-30T21:40:19.948Z,3.97
2023-04-30T21:42:46.904Z,3.91
2023-04-30T21:45:13.763Z,3.85
2023-04-30T21:47:40.668Z,3.81
2023-04-30T21:50:08.315Z,3.76
2023-04-30T21:52:35.110Z,3.71
2023-04-30T21:55:02.059Z,3.67
2023-04-30T21:57:28.896Z,3.63
2023-04-30T21:59:55.816Z,3.59
2023-04-30T22:02:24.236Z,3.56
2023-04-30T22:04:51.442Z,3.51
2023-04-30T22:07:18.364Z,3.47
2023-04-30T22:09:45.383Z,3.44
2023-04-30T22:12:12.284Z,3.40
2023-04-30T22:14:39.317Z,3.36
2023-04-30T22:17:06.230Z,3.31
2023-04-30T22:19:33.014Z,3.25
2023-04-30T22:21:59.798Z,3.21
2023-04-30T22:24:26.584Z,3.16
2023-04-30T22:26:53.305Z,3.11
2023-04-30T22:29:20.531Z,3.05
2023-04-30T22:31:47.655Z,3.00
2023-04-30T22:34:15.627Z,2.96
2023-04-30T22:36:43.727Z,2.92
2023-04-30T22:39:11.934Z,2.90
2023-04-30T22:41:39.101Z,2.87
2023-04-30T22:44:06.083Z,2.85
2023-04-30T22:46:34.920Z,2.82
2023-04-30T22:49:01.935Z,2.77
2023-04-30T22:51:28.826Z,2.71
2023-04-30T22:53:56.835Z,2.67
2023-04-30T22:56:24.292Z,2.64
2023-04-30T22:58:51.128Z,2.61
2023-04-30T23:01:18.335Z,2.58
2023-04-30T23:03:45.243Z,2.54
2023-04-30T23:06:12.235Z,2.49
2023-04-30T23:08:39.331Z,2.45
2023-04-30T23:11:15.098Z,2.42
2023-04-30T23:14:02.104Z,2.38
2023-04-30T23:16:29.049Z,2.35
2023-04-30T23:18:56.769Z,2.32
2023-04-30T23:21:24.077Z,2.29
2023-04-30T23:23:51.099Z,2.27
2023-04-30T23:26:18.200Z,2.24
2023-04-30T23:28:45.166Z,2.21
2023-04-30T23:31:12.357Z,2.18
2023-04-30T23:33:39.207Z,2.15
2023-04-30T23:36:06.646Z,2.11
2023-04-30T23:38:33.596Z,2.08
2023-04-30T23:41:00.596Z,2.05
2023-04-30T23:43:29.776Z,2.01
2023-04-30T23:46:00.227Z,1.97
2023-04-30T23:48:27.319Z,1.93
2023-04-30T23:51:05.553Z,1.90
2023-04-30T23:53:32.527Z,1.87
2023-04-30T23:56:00.308Z,1.84
2023-04-30T23:58:30.396Z,1.81
